createdAt,value
2022-10-04T00:01:45.919Z,21.19
2022-10-04T00:04:24.321Z,21.27
2022-10-04T00:07:12.585Z,21.33
2022-10-04T00:09:49.106Z,21.30
2022-10-04T00:12:26.114Z,21.33
2022-10-04T00:15:01.418Z,21.20
2022-10-04T00:17:36.187Z,21.22
2022-10-04T00:20:47.236Z,21.22
2022-10-04T00:23:50.288Z,21.13
2022-10-04T00:26:25.066Z,21.11
2022-10-04T00:28:53.396Z,21.01
2022-10-04T00:31:27.299Z,21.06
2022-10-04T00:34:04.749Z,20.97
2022-10-04T00:36:49.041Z,20.96
2022-10-04T00:39:42.465Z,20.98
2022-10-04T00:42:29.377Z,20.96
2022-10-04T00:45:08.874Z,20.91
2022-10-04T00:48:11.987Z,20.76
2022-10-04T00:50:47.639Z,20.73
2022-10-04T00:53:39.423Z,20.67
2022-10-04T00:56:27.092Z,20.60
2022-10-04T00:58:55.707Z,20.51
2022-10-04T01:01:30.478Z,20.55
2022-10-04T01:04:06.420Z,20.55
2022-10-04T01:06:37.981Z,20.51
2022-10-04T01:09:09.189Z,20.57
2022-10-04T01:11:47.192Z,20.53
2022-10-04T01:14:27.630Z,20.46
2022-10-04T01:16:55.832Z,20.52
2022-10-04T01:19:24.876Z,20.50
2022-10-04T01:22:05.163Z,20.50
2022-10-04T01:24:44.393Z,20.46
2022-10-04T01:27:45.211Z,20.52
2022-10-04T01:30:16.736Z,20.51
2022-10-04T01:32:45.449Z,20.42
2022-10-04T01:35:16.408Z,20.46
2022-10-04T01:37:44.341Z,20.38
2022-10-04T01:40:13.117Z,20.34
2022-10-04T01:42:42.293Z,20.31
2022-10-04T01:45:20.405Z,20.18
2022-10-04T01:47:56.589Z,20.05
2022-10-04T01:50:36.440Z,20.07
2022-10-04T01:53:30.621Z,20.05
2022-10-04T01:56:30.264Z,20.02
2022-10-04T01:59:04.748Z,20.00
2022-10-04T02:01:48.789Z,20.02
2022-10-04T02:04:35.785Z,20.07
2022-10-04T02:07:12.757Z,19.93
2022-10-04T02:09:45.543Z,19.94
2022-10-04T02:12:19.242Z,19.84
2022-10-04T02:14:53.999Z,19.74
2022-10-04T02:17:38.352Z,19.78
2022-10-04T02:20:14.372Z,19.68
2022-10-04T02:22:43.852Z,19.62
2022-10-04T02:25:13.851Z,19.60
2022-10-04T02:27:42.115Z,19.44
2022-10-04T02:30:13.211Z,19.54
2022-10-04T02:33:00.402Z,19.53
2022-10-04T02:35:53.184Z,19.53
2022-10-04T02:38:29.382Z,19.49
2022-10-04T02:41:13.127Z,19.52
2022-10-04T02:44:10.531Z,19.53
2022-10-04T02:46:51.746Z,19.48
2022-10-04T02:49:34.686Z,19.53
2022-10-04T02:52:06.818Z,19.56
2022-10-04T02:54:57.054Z,19.53
2022-10-04T02:57:25.757Z,19.45
2022-10-04T03:00:21.201Z,19.58
2022-10-04T03:03:16.415Z,19.63
2022-10-04T03:05:47.957Z,19.68
2022-10-04T03:08:16.052Z,19.64
2022-10-04T03:10:44.247Z,19.61
2022-10-04T03:13:16.281Z,19.68
2022-10-04T03:15:45.211Z,19.71
2022-10-04T03:18:15.694Z,19.74
2022-10-04T03:20:46.151Z,19.72
2022-10-04T03:23:17.859Z,19.75
2022-10-04T03:26:20.031Z,19.74
2022-10-04T03:28:48.328Z,19.71
2022-10-04T03:31:17.244Z,19.68
2022-10-04T03:33:46.047Z,19.68
2022-10-04T03:36:18.775Z,19.74
2022-10-04T03:38:49.287Z,19.71
2022-10-04T03:41:17.355Z,19.56
2022-10-04T03:43:58.562Z,19.54
2022-10-04T03:46:38.136Z,19.57
2022-10-04T03:49:09.517Z,19.51
2022-10-04T03:51:46.118Z,19.51
2022-10-04T03:54:19.691Z,19.57
2022-10-04T03:56:48.937Z,19.57
2022-10-04T03:59:19.009Z,19.56
2022-10-04T04:01:51.415Z,19.55
2022-10-04T04:04:37.304Z,19.58
2022-10-04T04:07:13.209Z,19.54
2022-10-04T04:10:26.479Z,19.49
2022-10-04T04:12:58.995Z,19.41
2022-10-04T04:15:33.811Z,19.35
2022-10-04T04:18:08.373Z,19.27
2022-10-04T04:20:39.006Z,19.29
2022-10-04T04:23:16.186Z,19.35
2022-10-04T04:25:48.920Z,19.47
2022-10-04T04:28:22.822Z,19.51
2022-10-04T04:31:02.784Z,19.59
2022-10-04T04:33:38.729Z,19.49
2022-10-04T04:36:11.618Z,19.56
2022-10-04T04:39:18.337Z,19.57
2022-10-04T04:41:50.365Z,19.59
2022-10-04T04:44:20.673Z,19.58
2022-10-04T04:46:48.902Z,19.55
2022-10-04T04:49:19.193Z,19.62
2022-10-04T04:51:51.797Z,19.63
2022-10-04T04:54:26.468Z,19.51
2022-10-04T04:56:57.845Z,19.48
2022-10-04T04:59:28.427Z,19.49
2022-10-04T05:01:56.438Z,19.54
2022-10-04T05:04:27.004Z,19.51
2022-10-04T05:07:03.998Z,19.54
2022-10-04T05:09:37.731Z,19.58
2022-10-04T05:12:18.747Z,19.64
2022-10-04T05:14:50.056Z,19.56
2022-10-04T05:17:25.778Z,19.63
2022-10-04T05:19:59.178Z,19.58
2022-10-04T05:22:29.319Z,19.55
2022-10-04T05:25:03.062Z,19.57
2022-10-04T05:27:38.966Z,19.52
2022-10-04T05:30:14.139Z,19.53
2022-10-04T05:33:02.342Z,19.51
2022-10-04T05:35:39.321Z,19.55
2022-10-04T05:38:29.683Z,19.50
2022-10-04T05:41:06.549Z,19.57
2022-10-04T05:43:47.483Z,19.56
2022-10-04T05:46:21.372Z,19.46
2022-10-04T05:49:06.142Z,19.46
2022-10-04T05:51:54.705Z,19.50
2022-10-04T05:54:29.172Z,19.52
2022-10-04T05:57:22.506Z,19.51
2022-10-04T06:00:12.987Z,19.49
2022-10-04T06:03:08.864Z,19.54
2022-10-04T06:05:56.342Z,19.55
2022-10-04T06:08:45.806Z,19.63
2022-10-04T06:11:28.224Z,19.69
2022-10-04T06:14:31.610Z,19.74
2022-10-04T06:17:15.374Z,19.77
2022-10-04T06:20:18.344Z,19.76
2022-10-04T06:22:48.992Z,19.73
2022-10-04T06:25:39.610Z,19.82
2022-10-04T06:28:22.270Z,19.81
2022-10-04T06:31:18.831Z,19.88
2022-10-04T06:34:31.391Z,20.00
2022-10-04T06:37:20.757Z,19.92
2022-10-04T06:39:54.565Z,19.98
2022-10-04T06:42:37.531Z,20.06
2022-10-04T06:45:28.789Z,20.17
2022-10-04T06:48:27.967Z,20.24
2022-10-04T06:51:01.621Z,20.36
2022-10-04T06:53:44.646Z,20.31
2022-10-04T06:56:41.745Z,20.35
2022-10-04T06:59:15.191Z,20.49
2022-10-04T07:02:00.049Z,20.52
2022-10-04T07:05:07.118Z,20.60
2022-10-04T07:07:51.462Z,20.70
2022-10-04T07:11:03.895Z,20.58
2022-10-04T07:13:42.729Z,20.75
2022-10-04T07:16:34.954Z,20.72
2022-10-04T07:19:24.792Z,20.80
2022-10-04T07:21:56.060Z,20.84
2022-10-04T07:24:59.479Z,21.01
2022-10-04T07:28:14.935Z,21.00
2022-10-04T07:31:28.666Z,21.14
2022-10-04T07:34:03.665Z,21.13
2022-10-04T07:36:57.132Z,21.24
2022-10-04T07:40:09.434Z,21.27
2022-10-04T07:43:06.394Z,21.29
2022-10-04T07:45:44.805Z,21.43
2022-10-04T07:48:16.998Z,21.60
2022-10-04T07:51:04.030Z,21.83
2022-10-04T07:53:45.380Z,21.87
2022-10-04T07:56:27.164Z,22.07
2022-10-04T07:59:30.657Z,22.25
2022-10-04T08:02:51.624Z,22.36
2022-10-04T08:05:23.668Z,22.43
2022-10-04T08:08:24.202Z,22.50
2022-10-04T08:11:28.884Z,22.58
2022-10-04T08:14:45.979Z,22.75
2022-10-04T08:17:47.201Z,22.84
2022-10-04T08:20:24.426Z,22.93
2022-10-04T08:23:20.817Z,22.94
2022-10-04T08:40:47.758Z,23.61
2022-10-04T08:44:02.964Z,23.73
2022-10-04T08:47:06.526Z,23.80
2022-10-04T08:49:47.484Z,23.86
2022-10-04T08:52:28.288Z,24.02
2022-10-04T08:55:35.519Z,24.14
2022-10-04T08:58:27.806Z,24.24
2022-10-04T09:01:28.775Z,24.38
2022-10-04T09:04:34.763Z,24.52
2022-10-04T09:07:26.406Z,24.61
2022-10-04T09:10:25.107Z,24.70
2022-10-04T09:13:36.127Z,24.72
2022-10-04T09:16:19.217Z,24.80
2022-10-04T09:19:25.652Z,24.72
2022-10-04T09:22:13.270Z,24.75
2022-10-04T09:25:17.456Z,24.77
2022-10-04T09:28:12.095Z,24.72
2022-10-04T09:30:57.885Z,24.70
2022-10-04T09:33:41.890Z,24.76
2022-10-04T09:36:21.421Z,24.86
2022-10-04T09:39:30.278Z,24.92
2022-10-04T09:42:26.609Z,24.94
2022-10-04T09:45:12.608Z,24.95
2022-10-04T09:47:53.775Z,25.01
2022-10-04T09:50:45.993Z,24.94
2022-10-04T09:53:22.393Z,24.95
2022-10-04T09:56:04.646Z,25.01
2022-10-04T09:58:48.823Z,25.01
2022-10-04T10:01:46.921Z,24.96
2022-10-04T10:05:00.584Z,25.07
2022-10-04T10:08:09.671Z,25.09
2022-10-04T10:12:02.846Z,25.20
2022-10-04T10:14:45.341Z,25.23
2022-10-04T10:17:36.861Z,25.32
2022-10-04T10:20:23.968Z,25.42
2022-10-04T10:26:24.783Z,25.45
2022-10-04T10:41:19.653Z,25.84
2022-10-04T10:44:20.830Z,25.91
2022-10-04T10:47:06.954Z,25.96
2022-10-04T10:49:54.122Z,25.97
2022-10-04T10:52:34.152Z,26.06
2022-10-04T10:55:27.215Z,26.04
2022-10-04T10:58:14.665Z,26.02
2022-10-04T11:01:02.735Z,25.91
2022-10-04T11:04:04.795Z,25.95
2022-10-04T11:06:49.031Z,25.91
2022-10-04T11:09:30.506Z,25.99
2022-10-04T11:12:23.836Z,25.92
2022-10-04T11:15:28.639Z,25.94
2022-10-04T11:18:43.942Z,26.07
2022-10-04T11:21:51.301Z,26.10
2022-10-04T11:25:17.461Z,26.00
2022-10-04T11:32:10.373Z,25.93
2022-10-04T11:35:01.776Z,25.93
2022-10-04T11:37:54.122Z,25.98
2022-10-04T11:40:36.307Z,26.00
2022-10-04T11:43:47.358Z,26.00
2022-10-04T11:46:48.711Z,26.08
2022-10-04T11:49:54.846Z,26.13
2022-10-04T11:52:49.960Z,26.14
2022-10-04T11:55:54.495Z,26.08
2022-10-04T11:58:46.523Z,26.10
2022-10-04T12:01:38.966Z,26.17
2022-10-04T12:04:38.574Z,26.23
2022-10-04T12:07:27.363Z,26.19
2022-10-04T12:10:30.451Z,26.27
2022-10-04T12:13:39.093Z,26.36
2022-10-04T12:16:27.825Z,26.37
2022-10-04T12:19:46.015Z,26.34
2022-10-04T12:22:45.979Z,26.44
2022-10-04T12:25:56.641Z,26.35
2022-10-04T12:28:40.346Z,26.33
2022-10-04T12:40:25.656Z,26.06
2022-10-04T12:43:35.082Z,26.17
2022-10-04T12:46:31.408Z,26.24
2022-10-04T12:49:54.731Z,26.24
2022-10-04T12:52:58.423Z,26.17
2022-10-04T12:56:08.874Z,26.16
2022-10-04T12:59:12.259Z,26.08
2022-10-04T13:01:48.998Z,26.00
2022-10-04T13:04:39.633Z,26.00
2022-10-04T13:07:37.162Z,25.96
2022-10-04T13:10:40.607Z,25.98
2022-10-04T13:14:05.363Z,26.11
2022-10-04T13:23:34.597Z,26.00
2022-10-04T13:29:45.438Z,25.94
2022-10-04T13:32:19.477Z,25.97
2022-10-04T13:35:25.967Z,25.92
2022-10-04T13:38:31.695Z,25.81
2022-10-04T13:41:03.123Z,25.79
2022-10-04T13:43:58.743Z,25.83
2022-10-04T13:46:40.492Z,25.77
2022-10-04T13:49:36.689Z,25.79
2022-10-04T13:52:42.621Z,25.65
2022-10-04T13:55:53.899Z,25.57
2022-10-04T13:58:47.290Z,25.59
2022-10-04T14:01:30.345Z,25.57
2022-10-04T14:04:06.852Z,25.60
2022-10-04T14:07:09.484Z,25.29
2022-10-04T14:10:13.902Z,25.24
2022-10-04T14:13:00.044Z,25.28
2022-10-04T14:15:55.717Z,25.08
2022-10-04T14:18:55.531Z,25.04
2022-10-04T14:21:36.436Z,24.95
2022-10-04T14:24:11.170Z,25.06
2022-10-04T14:27:10.024Z,25.05
2022-10-04T14:29:46.419Z,25.16
2022-10-04T14:32:31.374Z,25.14
2022-10-04T14:35:10.962Z,25.10
2022-10-04T14:38:14.791Z,25.07
2022-10-04T14:41:07.656Z,25.11
2022-10-04T14:44:00.129Z,25.13
2022-10-04T14:46:56.512Z,25.11
2022-10-04T14:49:37.022Z,25.16
2022-10-04T14:52:22.455Z,25.16
2022-10-04T14:55:08.297Z,25.14
2022-10-04T14:58:02.954Z,25.18
2022-10-04T15:01:14.899Z,25.11
2022-10-04T15:04:20.234Z,25.14
2022-10-04T15:07:03.176Z,25.16
2022-10-04T15:10:14.948Z,25.21
2022-10-04T15:16:01.064Z,25.13
2022-10-04T15:18:53.530Z,25.08
2022-10-04T15:21:36.530Z,24.94
2022-10-04T15:24:19.435Z,25.07
2022-10-04T15:27:22.286Z,25.13
2022-10-04T15:30:08.627Z,25.14
2022-10-04T15:32:37.291Z,25.16
2022-10-04T15:35:22.991Z,25.21
2022-10-04T15:37:51.206Z,25.19
2022-10-04T15:40:25.601Z,25.16
2022-10-04T15:43:14.106Z,25.24
2022-10-04T15:46:19.673Z,25.20
2022-10-04T15:49:37.562Z,25.25
2022-10-04T15:52:18.616Z,25.21
2022-10-04T15:55:08.380Z,25.26
2022-10-04T15:57:36.146Z,25.16
2022-10-04T16:00:23.267Z,25.19
2022-10-04T16:03:11.218Z,25.28
2022-10-04T16:05:43.591Z,25.34
2022-10-04T16:09:02.640Z,25.42
2022-10-04T16:11:51.285Z,25.45
2022-10-04T16:14:27.861Z,25.41
2022-10-04T16:17:14.179Z,25.31
2022-10-04T16:20:16.833Z,25.41
2022-10-04T16:23:24.416Z,25.39
2022-10-04T16:25:56.220Z,25.32
2022-10-04T16:28:23.853Z,25.32
2022-10-04T16:31:20.386Z,25.28
2022-10-04T16:34:08.537Z,25.26
2022-10-04T16:36:52.869Z,25.21
2022-10-04T16:40:07.221Z,25.24
2022-10-04T16:42:57.742Z,25.16
2022-10-04T16:45:31.318Z,24.98
2022-10-04T16:48:07.486Z,24.91
2022-10-04T16:50:54.177Z,24.90
2022-10-04T16:53:51.094Z,24.83
2022-10-04T16:56:26.170Z,24.81
2022-10-04T16:59:09.814Z,24.74
2022-10-04T17:02:11.465Z,24.67
2022-10-04T17:04:41.921Z,24.67
2022-10-04T17:07:34.271Z,24.60
2022-10-04T17:10:21.538Z,24.48
2022-10-04T17:13:16.507Z,24.42
2022-10-04T17:16:04.604Z,24.38
2022-10-04T17:18:52.163Z,24.22
2022-10-04T17:21:23.117Z,24.21
2022-10-04T17:24:05.236Z,24.18
2022-10-04T17:26:47.938Z,24.16
2022-10-04T17:29:28.460Z,24.10
2022-10-04T17:32:26.171Z,24.08
2022-10-04T17:35:35.342Z,24.03
2022-10-04T17:38:11.196Z,24.02
2022-10-04T17:41:03.284Z,23.97
2022-10-04T17:43:42.300Z,23.99
2022-10-04T17:46:16.971Z,23.92
2022-10-04T17:49:09.050Z,23.83
2022-10-04T17:51:59.317Z,23.83
2022-10-04T17:55:02.454Z,23.83
2022-10-04T17:57:41.468Z,23.82
2022-10-04T18:00:18.550Z,23.77
2022-10-04T18:03:10.375Z,23.73
2022-10-04T18:05:46.482Z,23.73
2022-10-04T18:08:32.576Z,23.73
2022-10-04T18:11:25.057Z,23.74
2022-10-04T18:14:23.663Z,23.73
2022-10-04T18:16:56.661Z,23.67
2022-10-04T18:20:18.118Z,23.69
2022-10-04T18:22:57.351Z,23.62
2022-10-04T18:25:51.711Z,23.62
2022-10-04T18:28:23.023Z,23.61
2022-10-04T18:30:51.657Z,23.58
2022-10-04T18:33:26.681Z,23.59
2022-10-04T18:36:13.879Z,23.60
2022-10-04T18:38:45.057Z,23.58
2022-10-04T18:41:20.732Z,23.53
2022-10-04T18:44:05.581Z,23.52
2022-10-04T18:46:50.286Z,23.50
2022-10-04T18:49:37.004Z,23.47
2022-10-04T18:52:11.330Z,23.49
2022-10-04T18:54:57.433Z,23.49
2022-10-04T18:58:06.617Z,23.52
2022-10-04T19:01:04.403Z,23.48
2022-10-04T19:03:54.025Z,23.48
2022-10-04T19:06:34.585Z,23.45
2022-10-04T19:09:39.801Z,23.45
2022-10-04T19:12:22.011Z,23.45
2022-10-04T19:15:19.057Z,23.43
2022-10-04T19:17:53.275Z,23.40
2022-10-04T19:21:10.756Z,23.42
2022-10-04T19:23:39.602Z,23.35
2022-10-04T19:26:32.009Z,23.37
2022-10-04T19:29:07.397Z,23.38
2022-10-04T19:31:58.381Z,23.34
2022-10-04T19:34:47.771Z,23.33
2022-10-04T19:37:32.073Z,23.34
2022-10-04T19:40:23.031Z,23.34
2022-10-04T19:42:59.736Z,23.25
2022-10-04T19:45:36.116Z,23.29
2022-10-04T19:48:32.675Z,23.24
2022-10-04T19:51:35.821Z,23.21
2022-10-04T19:54:44.425Z,23.16
2022-10-04T19:57:17.307Z,23.08
2022-10-04T19:59:50.036Z,23.07
2022-10-04T20:02:23.003Z,23.10
2022-10-04T20:04:59.004Z,23.12
2022-10-04T20:07:31.144Z,23.13
2022-10-04T20:10:24.269Z,23.10
2022-10-04T20:13:27.128Z,23.04
2022-10-04T20:16:04.873Z,23.03
2022-10-04T20:18:42.695Z,23.01
2022-10-04T20:21:26.660Z,22.98
2022-10-04T20:23:59.734Z,22.95
2022-10-04T20:27:08.590Z,22.92
2022-10-04T20:29:39.448Z,22.92
2022-10-04T20:32:37.409Z,22.92
2022-10-04T20:35:22.508Z,22.89
2022-10-04T20:38:07.874Z,22.88
2022-10-04T20:40:46.317Z,22.83
2022-10-04T20:43:20.765Z,22.77
2022-10-04T20:45:58.735Z,22.70
2022-10-04T20:48:34.763Z,22.68
2022-10-04T20:51:10.002Z,22.60
2022-10-04T20:53:53.776Z,22.58
2022-10-04T20:56:27.715Z,22.58
2022-10-04T20:59:05.921Z,22.59
2022-10-04T21:01:36.267Z,22.58
2022-10-04T21:04:21.524Z,22.55
2022-10-04T21:07:08.092Z,22.55
2022-10-04T21:09:42.310Z,22.55
2022-10-04T21:12:37.780Z,22.53
2022-10-04T21:15:20.137Z,22.45
2022-10-04T21:18:04.716Z,22.41
2022-10-04T21:20:51.478Z,22.42
2022-10-04T21:23:39.581Z,22.39
2022-10-04T21:26:26.996Z,22.35
2022-10-04T21:29:10.611Z,22.36
2022-10-04T21:31:47.357Z,22.33
2022-10-04T21:34:34.604Z,22.32
2022-10-04T21:37:03.453Z,22.29
2022-10-04T21:39:31.450Z,22.19
2022-10-04T21:42:06.172Z,22.18
2022-10-04T21:44:40.021Z,22.08
2022-10-04T21:47:13.947Z,22.01
2022-10-04T21:49:43.903Z,22.04
2022-10-04T21:52:11.576Z,22.02
2022-10-04T21:54:39.277Z,21.97
2022-10-04T21:57:06.892Z,21.98
2022-10-04T21:59:34.886Z,21.92
2022-10-04T22:02:02.758Z,21.91
2022-10-04T22:04:32.030Z,21.92
2022-10-04T22:07:04.409Z,21.90
2022-10-04T22:09:33.491Z,21.77
2022-10-04T22:12:01.081Z,21.76
2022-10-04T22:14:28.485Z,21.80
2022-10-04T22:17:01.418Z,21.82
2022-10-04T22:19:29.030Z,21.83
2022-10-04T22:21:57.111Z,21.75
2022-10-04T22:24:24.980Z,21.69
2022-10-04T22:26:52.184Z,21.72
2022-10-04T22:29:20.066Z,21.67
2022-10-04T22:31:51.352Z,21.63
2022-10-04T22:34:23.224Z,21.52
2022-10-04T22:36:56.304Z,21.37
2022-10-04T22:39:26.187Z,21.37
2022-10-04T22:41:59.649Z,21.20
2022-10-04T22:44:33.979Z,21.21
2022-10-04T22:47:02.879Z,21.26
2022-10-04T22:49:34.548Z,21.32
2022-10-04T22:52:07.003Z,21.33
2022-10-04T22:54:36.315Z,21.17
2022-10-04T22:57:04.219Z,21.25
2022-10-04T22:59:39.357Z,21.19
2022-10-04T23:02:15.149Z,21.14
2022-10-04T23:04:51.686Z,21.09
2022-10-04T23:07:23.897Z,21.08
2022-10-04T23:09:51.663Z,21.07
2022-10-04T23:12:19.013Z,21.09
2022-10-04T23:14:46.921Z,21.07
2022-10-04T23:17:26.931Z,20.99
2022-10-04T23:19:59.161Z,20.97
2022-10-04T23:22:29.541Z,21.00
2022-10-04T23:24:58.638Z,21.05
2022-10-04T23:27:27.678Z,21.00
2022-10-04T23:30:03.908Z,20.96
2022-10-04T23:32:33.533Z,20.99
2022-10-04T23:35:04.429Z,21.04
2022-10-04T23:37:33.382Z,21.04
2022-10-04T23:40:01.832Z,21.03
2022-10-04T23:42:33.902Z,21.01
2022-10-04T23:45:02.877Z,21.03
2022-10-04T23:47:36.419Z,21.04
2022-10-04T23:50:24.931Z,21.00
2022-10-04T23:52:57.945Z,20.91
2022-10-04T23:55:39.032Z,20.89
2022-10-04T23:58:15.491Z,20.88
